Aviosuperficie Pegasus 2000

IT-0055 · Piëmont, Italië

METAR historie IT-0055 · Aviosuperficie Pegasus 2000

Hieronder zie je METAR's van de afgelopen dagen. Kies een jaar om door oudere METAR's te bladeren, vanaf het jaar 2007.

16 april 2024

Tijd Code Weer Temp. Zicht Plafond Wind METAR/SPECI
01:50
V
14 °C 10 km+ - 260° 260° 5 kt METAR LIMF 152350Z 26005KT 230V330 CAVOK 14/12 Q1005
01:20
V
13 °C 10 km+ - 280° 280° 5 kt METAR LIMF 152320Z 28005KT CAVOK 13/11 Q1006
00:50
V
14 °C 10 km+ - 280° 280° 5 kt METAR LIMF 152250Z 28005KT CAVOK 14/11 Q1006
00:20
V
15 °C 10 km+ - 310° 310° 3 kt METAR LIMF 152220Z 31003KT 240V360 CAVOK 15/12 Q1006

15 april 2024

Tijd Code Weer Temp. Zicht Plafond Wind METAR/SPECI
23:50
V
15 °C 10 km+ - 310° 310° 3 kt METAR LIMF 152150Z 31003KT CAVOK 15/12 Q1006
23:20
V
14 °C 10 km+ - Var Var 2 kt METAR LIMF 152120Z VRB02KT CAVOK 14/11 Q1006
22:50
V
16 °C 10 km+ - 320° 320° 3 kt METAR LIMF 152050Z 32003KT CAVOK 16/12 Q1007
22:20
V
16 °C 10 km+ - 350° 350° 5 kt METAR LIMF 152020Z 35005KT CAVOK 16/11 Q1007
21:50
V
17 °C 10 km+ - 350° 350° 4 kt METAR LIMF 151950Z 35004KT CAVOK 17/12 Q1007
21:20
V
16 °C 10 km+ - 360° 360° 5 kt METAR LIMF 151920Z 36005KT CAVOK 16/12 Q1007
20:50
V
18 °C 10 km+ - 060° 060° 2 kt METAR LIMF 151850Z 06002KT CAVOK 18/13 Q1007
20:20
V
19 °C 10 km+ - 030° 030° 2 kt METAR LIMF 151820Z 03002KT CAVOK 19/13 Q1007
19:50
V
21 °C 10 km+ - 050° 050° 3 kt METAR LIMF 151750Z 05003KT CAVOK 21/13 Q1007
19:20
V
21 °C 10 km+ - 110° 110° 3 kt METAR LIMF 151720Z 11003KT 070V140 CAVOK 21/13 Q1008
18:50
V
22 °C 10 km+ - 050° 050° 3 kt METAR LIMF 151650Z 05003KT 020V080 CAVOK 22/13 Q1008
18:20
V
22 °C 10 km+ - 050° 050° 3 kt METAR LIMF 151620Z 05003KT 020V130 CAVOK 22/12 Q1008
17:50
V
22 °C 10 km+ - Var Var 3 kt METAR LIMF 151550Z VRB03KT CAVOK 22/12 Q1009
17:20
V
22 °C 10 km+ - 110° 110° 3 kt METAR LIMF 151520Z 11003KT 050V160 CAVOK 22/12 Q1009
16:50
V
22 °C 10 km+ - Var Var 2 kt METAR LIMF 151450Z VRB02KT CAVOK 22/12 Q1009
16:20
V
21 °C 10 km+ - 090° 090° 5 kt METAR LIMF 151420Z 09005KT 040V140 CAVOK 21/12 Q1010
15:50
V
21 °C 10 km+ - 060° 060° 5 kt METAR LIMF 151350Z 06005KT 020V110 CAVOK 21/12 Q1011
15:20
V
21 °C 10 km+ - 090° 090° 4 kt METAR LIMF 151320Z 09004KT 030V150 CAVOK 21/12 Q1011
14:50
V
21 °C 10 km+ - 130° 130° 3 kt METAR LIMF 151250Z 13003KT 070V220 CAVOK 21/10 Q1011
14:20
V
20 °C 10 km+ - 150° 150° 3 kt METAR LIMF 151220Z 15003KT 110V190 CAVOK 20/10 Q1012
13:50
V
20 °C 10 km+ - 120° 120° 3 kt METAR LIMF 151150Z 12003KT 080V150 CAVOK 20/11 Q1012
13:20
V
19 °C 10 km+ - Var Var 2 kt METAR LIMF 151120Z VRB02KT CAVOK 19/10 Q1013
12:50
V
19 °C 10 km+ - Var Var 2 kt METAR LIMF 151050Z VRB02KT CAVOK 19/10 Q1013
12:20
V
19 °C 10 km+ - Var Var 1 kt METAR LIMF 151020Z VRB01KT CAVOK 19/12 Q1014
11:50
V
20 °C 10 km+ - 360° 360° 0 kt METAR LIMF 150950Z 00000KT CAVOK 20/11 Q1014
11:20
V
19 °C 10 km+ - Var Var 1 kt METAR LIMF 150920Z VRB01KT CAVOK 19/10 Q1014
10:50
V
18 °C 10 km+ - 230° 230° 3 kt METAR LIMF 150850Z 23003KT 180V250 CAVOK 18/12 Q1014
10:20
V
17 °C 10 km+ - 180° 180° 3 kt METAR LIMF 150820Z 18003KT 130V190 CAVOK 17/13 Q1014
09:50
V
17 °C 10 km+ - Var Var 2 kt METAR LIMF 150750Z VRB02KT CAVOK 17/12 Q1014
09:20
V
17 °C 10 km+ - Var Var 2 kt METAR LIMF 150720Z VRB02KT CAVOK 17/13 Q1014
08:50
V
16 °C 10 km+ - 300° 300° 4 kt METAR LIMF 150650Z 30004KT CAVOK 16/12 Q1014
08:20
V
15 °C 10 km+ - 310° 310° 3 kt METAR LIMF 150620Z 31003KT 260V350 CAVOK 15/12 Q1014
07:50
V
13 °C 10 km+ - Var Var 1 kt METAR LIMF 150550Z VRB01KT CAVOK 13/11 Q1015
07:20
V
14 °C 10 km+ - 190° 190° 3 kt METAR LIMF 150520Z 19003KT 150V210 CAVOK 14/11 Q1015
06:50
V
15 °C 10 km+ - Var Var 2 kt METAR LIMF 150450Z VRB02KT CAVOK 15/11 Q1015
06:20
V
15 °C 10 km+ - 320° 320° 3 kt METAR LIMF 150420Z 32003KT CAVOK 15/11 Q1015
05:50
V
15 °C 10 km+ - 300° 300° 4 kt METAR LIMF 150350Z 30004KT CAVOK 15/11 Q1015
05:20
V
16 °C 10 km+ - 300° 300° 4 kt METAR LIMF 150320Z 30004KT CAVOK 16/11 Q1016
04:50
V
16 °C 10 km+ - 290° 290° 4 kt METAR LIMF 150250Z 29004KT CAVOK 16/10 Q1016
04:20
V
16 °C 10 km+ - Var Var 2 kt METAR LIMF 150220Z VRB02KT CAVOK 16/10 Q1016
03:50
V
15 °C 10 km+ - 070° 070° 4 kt METAR LIMF 150150Z 07004KT CAVOK 15/10 Q1017
03:20
V
17 °C 10 km+ - 030° 030° 3 kt METAR LIMF 150120Z 03003KT CAVOK 17/11 Q1017
02:50
V
17 °C 10 km+ - Var Var 1 kt METAR LIMF 150050Z VRB01KT CAVOK 17/11 Q1017
02:20
V
17 °C 10 km+ - Var Var 2 kt METAR LIMF 150020Z VRB02KT CAVOK 17/12 Q1018
01:50
V
18 °C 10 km+ - 080° 080° 2 kt METAR LIMF 142350Z 08002KT CAVOK 18/12 Q1018
01:20
V
18 °C 10 km+ - 360° 360° 3 kt METAR LIMF 142320Z 36003KT 330V050 CAVOK 18/13 Q1018
00:50
V
18 °C 10 km+ - 010° 010° 3 kt METAR LIMF 142250Z 01003KT CAVOK 18/14 Q1018
00:20
V
18 °C 10 km+ - Var Var 2 kt METAR LIMF 142220Z VRB02KT CAVOK 18/14 Q1018

14 april 2024

Tijd Code Weer Temp. Zicht Plafond Wind METAR/SPECI
23:50
V
18 °C 10 km+ - Var Var 2 kt METAR LIMF 142150Z VRB02KT CAVOK 18/14 Q1018
23:20
V
21 °C 10 km+ - 340° 340° 4 kt METAR LIMF 142120Z 34004KT CAVOK 21/14 Q1018
22:50
V
20 °C 10 km+ - 310° 310° 3 kt METAR LIMF 142050Z 31003KT CAVOK 20/15 Q1019
22:20
V
22 °C 10 km+ - 310° 310° 4 kt METAR LIMF 142020Z 31004KT CAVOK 22/15 Q1019
21:50
V
22 °C 10 km+ - 330° 330° 3 kt METAR LIMF 141950Z 33003KT CAVOK 22/15 Q1019
21:20
V
21 °C 10 km+ - 350° 350° 5 kt METAR LIMF 141920Z 35005KT CAVOK 21/15 Q1019
20:50
V
23 °C 10 km+ - 360° 360° 4 kt METAR LIMF 141850Z 36004KT CAVOK 23/15 Q1019
20:20
V
23 °C 10 km+ - 040° 040° 4 kt METAR LIMF 141820Z 04004KT CAVOK 23/15 Q1019
19:50
V
24 °C 10 km+ - 060° 060° 3 kt METAR LIMF 141750Z 06003KT CAVOK 24/15 Q1019
19:20
V
25 °C 10 km+ - 060° 060° 3 kt METAR LIMF 141720Z 06003KT CAVOK 25/16 Q1019
18:50
V
26 °C 10 km+ - 070° 070° 4 kt METAR LIMF 141650Z 07004KT CAVOK 26/17 Q1019
18:20
V
27 °C 10 km+ - 080° 080° 4 kt METAR LIMF 141620Z 08004KT CAVOK 27/16 Q1019
17:50
V
27 °C 10 km+ - 070° 070° 5 kt METAR LIMF 141550Z 07005KT CAVOK 27/15 Q1019
17:20
V
27 °C 10 km+ - 070° 070° 3 kt METAR LIMF 141520Z 07003KT 020V120 CAVOK 27/14 Q1020
16:50
V
27 °C 10 km+ - 080° 080° 3 kt METAR LIMF 141450Z 08003KT 050V170 CAVOK 27/14 Q1020
16:20
V
27 °C 10 km+ - 050° 050° 3 kt METAR LIMF 141420Z 05003KT 360V100 CAVOK 27/15 Q1020
15:50
V
27 °C 10 km+ - 060° 060° 3 kt METAR LIMF 141350Z 06003KT 310V110 CAVOK 27/15 Q1021
15:20
V
27 °C 10 km+ - Var Var 2 kt METAR LIMF 141320Z VRB02KT CAVOK 27/14 Q1021
14:50
V
26 °C 10 km+ - Var Var 2 kt METAR LIMF 141250Z VRB02KT CAVOK 26/13 Q1022
14:20
V
26 °C 10 km+ - 180° 180° 3 kt METAR LIMF 141220Z 18003KT 120V290 CAVOK 26/12 Q1022
13:50
V
26 °C 10 km+ - 130° 130° 3 kt METAR LIMF 141150Z 13003KT 090V230 CAVOK 26/14 Q1023
13:20
V
25 °C 10 km+ - 130° 130° 3 kt METAR LIMF 141120Z 13003KT 070V190 CAVOK 25/14 Q1023
12:50
V
24 °C 10 km+ - Var Var 3 kt METAR LIMF 141050Z VRB03KT CAVOK 24/13 Q1024
12:20
V
24 °C 10 km+ - Var Var 3 kt METAR LIMF 141020Z VRB03KT CAVOK 24/13 Q1024
11:50
V
23 °C 10 km+ - Var Var 2 kt METAR LIMF 140950Z VRB02KT CAVOK 23/13 Q1024
11:20
V
22 °C 10 km+ - Var Var 2 kt METAR LIMF 140920Z VRB02KT CAVOK 22/13 Q1024
10:50
V
21 °C 10 km+ - Var Var 2 kt METAR LIMF 140850Z VRB02KT CAVOK 21/13 Q1025
10:20
V
20 °C 10 km+ - 130° 130° 3 kt METAR LIMF 140820Z 13003KT 070V190 CAVOK 20/12 Q1025
09:50
V
20 °C 10 km+ - Var Var 2 kt METAR LIMF 140750Z VRB02KT CAVOK 20/13 Q1025
09:20
V
20 °C 10 km+ - Var Var 2 kt METAR LIMF 140720Z VRB02KT CAVOK 20/13 Q1025
08:50
V
18 °C 10 km+ - Var Var 1 kt METAR LIMF 140650Z VRB01KT CAVOK 18/13 Q1025
08:20
V
16 °C 10 km+ - Var Var 1 kt METAR LIMF 140620Z VRB01KT CAVOK 16/12 Q1025
07:50
V
15 °C 10 km+ - 290° 290° 2 kt METAR LIMF 140550Z 29002KT CAVOK 15/10 Q1025
07:20
V
15 °C 10 km+ - 290° 290° 1 kt METAR LIMF 140520Z 29001KT CAVOK 15/10 Q1024
06:50
V
14 °C 10 km+ - 320° 320° 2 kt METAR LIMF 140450Z 32002KT CAVOK 14/10 Q1024
06:20
V
15 °C 10 km+ - 300° 300° 3 kt METAR LIMF 140420Z 30003KT CAVOK 15/10 Q1024
05:50
V
15 °C 10 km+ - 300° 300° 3 kt METAR LIMF 140350Z 30003KT CAVOK 15/10 Q1024
05:20
V
15 °C 10 km+ - 290° 290° 4 kt METAR LIMF 140320Z 29004KT CAVOK 15/11 Q1024
04:50
V
15 °C 10 km+ - 270° 270° 3 kt METAR LIMF 140250Z 27003KT CAVOK 15/11 Q1025
04:20
V
14 °C 10 km+ - Var Var 1 kt METAR LIMF 140220Z VRB01KT CAVOK 14/11 Q1025
03:50
V
15 °C 10 km+ - 310° 310° 3 kt METAR LIMF 140150Z 31003KT CAVOK 15/11 Q1025
03:20
V
16 °C 10 km+ - 300° 300° 2 kt METAR LIMF 140120Z 30002KT CAVOK 16/11 Q1025
02:50
V
17 °C 10 km+ - 300° 300° 3 kt METAR LIMF 140050Z 30003KT CAVOK 17/11 Q1025
02:20
V
16 °C 10 km+ - 290° 290° 4 kt METAR LIMF 140020Z 29004KT CAVOK 16/12 Q1025
01:50
V
17 °C 10 km+ - 250° 250° 3 kt METAR LIMF 132350Z 25003KT CAVOK 17/12 Q1026
01:20
V
16 °C 10 km+ - 330° 330° 2 kt METAR LIMF 132320Z 33002KT CAVOK 16/12 Q1026
00:50
V
16 °C 10 km+ - 230° 230° 3 kt METAR LIMF 132250Z 23003KT CAVOK 16/13 Q1026
00:20
V
18 °C 10 km+ - Var Var 2 kt METAR LIMF 132220Z VRB02KT CAVOK 18/12 Q1026

13 april 2024

Tijd Code Weer Temp. Zicht Plafond Wind METAR/SPECI
23:50
V
18 °C 10 km+ - 320° 320° 3 kt METAR LIMF 132150Z 32003KT CAVOK 18/12 Q1025
23:20
V
20 °C 10 km+ - 320° 320° 5 kt METAR LIMF 132120Z 32005KT CAVOK 20/13 Q1026
22:50
V
20 °C 10 km+ - 310° 310° 5 kt METAR LIMF 132050Z 31005KT CAVOK 20/14 Q1026
22:20
V
20 °C 10 km+ - 300° 300° 5 kt METAR LIMF 132020Z 30005KT CAVOK 20/14 Q1026
21:50
V
22 °C 10 km+ - 290° 290° 4 kt METAR LIMF 131950Z 29004KT CAVOK 22/16 Q1026
21:20
V
23 °C 10 km+ - Var Var 2 kt METAR LIMF 131920Z VRB02KT CAVOK 23/15 Q1025
20:50
V
22 °C 10 km+ - 060° 060° 3 kt METAR LIMF 131850Z 06003KT CAVOK 22/16 Q1025
20:20
V
23 °C 10 km+ - 080° 080° 3 kt METAR LIMF 131820Z 08003KT CAVOK 23/16 Q1025
19:50
V
24 °C 10 km+ - 080° 080° 4 kt METAR LIMF 131750Z 08004KT CAVOK 24/16 Q1025
19:20
V
24 °C 10 km+ - 080° 080° 4 kt METAR LIMF 131720Z 08004KT CAVOK 24/17 Q1025
18:50
V
25 °C 10 km+ - 080° 080° 3 kt METAR LIMF 131650Z 08003KT CAVOK 25/16 Q1025
18:20
V
26 °C 10 km+ - Var Var 2 kt METAR LIMF 131620Z VRB02KT CAVOK 26/14 Q1025
17:50
V
26 °C 10 km+ - Var Var 2 kt METAR LIMF 131550Z VRB02KT CAVOK 26/15 Q1025
17:20
V
26 °C 10 km+ - Var Var 3 kt METAR LIMF 131520Z VRB03KT CAVOK 26/15 Q1025
16:50
V
26 °C 10 km+ - Var Var 2 kt METAR LIMF 131450Z VRB02KT CAVOK 26/14 Q1025
16:20
V
27 °C 10 km+ - Var Var 1 kt METAR LIMF 131420Z VRB01KT CAVOK 27/14 Q1026
15:50
V
25 °C 10 km+ - Var Var 3 kt METAR LIMF 131350Z VRB03KT CAVOK 25/13 Q1026
15:20
V
25 °C 10 km+ - Var Var 2 kt METAR LIMF 131320Z VRB02KT CAVOK 25/12 Q1027
14:50
V
25 °C 10 km+ - Var Var 3 kt METAR LIMF 131250Z VRB03KT CAVOK 25/13 Q1027
14:20
V
25 °C 10 km+ - Var Var 2 kt METAR LIMF 131220Z VRB02KT CAVOK 25/13 Q1027
13:50
V
24 °C 10 km+ - 080° 080° 3 kt METAR LIMF 131150Z 08003KT 020V180 CAVOK 24/13 Q1028
13:20
V
23 °C 10 km+ - Var Var 3 kt METAR LIMF 131120Z VRB03KT CAVOK 23/13 Q1028
12:50
V
22 °C 10 km+ - 120° 120° 4 kt METAR LIMF 131050Z 12004KT 080V180 CAVOK 22/14 Q1028
12:20
V
22 °C 10 km+ - 100° 100° 3 kt METAR LIMF 131020Z 10003KT 020V150 CAVOK 22/14 Q1029
11:50
V
21 °C 10 km+ - 080° 080° 4 kt METAR LIMF 130950Z 08004KT 020V130 CAVOK 21/13 Q1029
11:20
V
21 °C 10 km+ - 090° 090° 4 kt METAR LIMF 130920Z 09004KT 050V190 CAVOK 21/12 Q1029
10:50
V
20 °C 10 km+ - 080° 080° 3 kt METAR LIMF 130850Z 08003KT 030V120 CAVOK 20/12 Q1029
10:20
V
19 °C 10 km+ - 040° 040° 3 kt METAR LIMF 130820Z 04003KT 330V080 CAVOK 19/12 Q1029
09:50
V
19 °C 10 km+ - Var Var 2 kt METAR LIMF 130750Z VRB02KT CAVOK 19/12 Q1029
09:20
V
18 °C 10 km+ - Var Var 2 kt METAR LIMF 130720Z VRB02KT CAVOK 18/10 Q1029
08:50
V
16 °C 10 km+ - Var Var 1 kt METAR LIMF 130650Z VRB01KT CAVOK 16/11 Q1029
08:20
V
14 °C 10 km+ - Var Var 1 kt METAR LIMF 130620Z VRB01KT CAVOK 14/10 Q1028
07:50
V
13 °C 10 km+ - Var Var 1 kt METAR LIMF 130550Z VRB01KT CAVOK 13/08 Q1028
Wijziging doorgeven